sensor_id;sensor_type;location;lat;lon;timestamp;pressure;altitude;pressure_sealevel;temperature;humidity
31044;BME280;17710;52.520;13.352;2023-03-01T00:00:03;102806.69;;;4.75;49.72
31044;BME280;17710;52.520;13.352;2023-03-01T00:02:30;102796.69;;;4.99;49.25
31044;BME280;17710;52.520;13.352;2023-03-01T00:04:56;102804.81;;;5.11;48.65
31044;BME280;17710;52.520;13.352;2023-03-01T00:07:22;102805.72;;;5.60;47.66
31044;BME280;17710;52.520;13.352;2023-03-01T00:09:49;102800.19;;;5.43;47.75
31044;BME280;17710;52.520;13.352;2023-03-01T00:12:17;102789.59;;;5.39;48.29
31044;BME280;17710;52.520;13.352;2023-03-01T00:14:43;102789.22;;;5.19;49.12
31044;BME280;17710;52.520;13.352;2023-03-01T00:17:09;102791.59;;;5.07;50.14
31044;BME280;17710;52.520;13.352;2023-03-01T00:19:36;102792.34;;;4.98;50.36
31044;BME280;17710;52.520;13.352;2023-03-01T00:24:48;102781.75;;;4.94;49.81
31044;BME280;17710;52.520;13.352;2023-03-01T00:27:16;102776.66;;;5.01;49.90
31044;BME280;17710;52.520;13.352;2023-03-01T00:29:42;102777.19;;;5.29;49.33
31044;BME280;17710;52.520;13.352;2023-03-01T00:32:09;102773.75;;;5.33;49.17
31044;BME280;17710;52.520;13.352;2023-03-01T00:34:35;102771.78;;;5.21;49.66
31044;BME280;17710;52.520;13.352;2023-03-01T00:37:02;102777.09;;;5.24;49.62
31044;BME280;17710;52.520;13.352;2023-03-01T00:39:30;102777.72;;;5.11;50.95
31044;BME280;17710;52.520;13.352;2023-03-01T00:41:57;102779.47;;;5.10;50.88
31044;BME280;17710;52.520;13.352;2023-03-01T00:44:25;102773.22;;;5.04;50.68
31044;BME280;17710;52.520;13.352;2023-03-01T00:46:53;102776.00;;;5.13;50.74
31044;BME280;17710;52.520;13.352;2023-03-01T00:49:19;102765.94;;;5.36;49.66
31044;BME280;17710;52.520;13.352;2023-03-01T00:51:46;102770.31;;;5.35;49.97
31044;BME280;17710;52.520;13.352;2023-03-01T00:54:12;102769.59;;;5.44;49.91
31044;BME280;17710;52.520;13.352;2023-03-01T00:56:39;102761.31;;;5.72;48.51
31044;BME280;17710;52.520;13.352;2023-03-01T00:59:05;102766.75;;;5.83;48.02
31044;BME280;17710;52.520;13.352;2023-03-01T01:01:33;102759.06;;;5.90;47.82
31044;BME280;17710;52.520;13.352;2023-03-01T01:04:01;102759.72;;;5.80;48.25
31044;BME280;17710;52.520;13.352;2023-03-01T01:06:30;102761.03;;;5.54;48.50
31044;BME280;17710;52.520;13.352;2023-03-01T01:08:58;102766.72;;;5.32;49.51
31044;BME280;17710;52.520;13.352;2023-03-01T01:11:26;102762.63;;;5.44;50.25
31044;BME280;17710;52.520;13.352;2023-03-01T01:13:53;102753.25;;;5.10;50.83
31044;BME280;17710;52.520;13.352;2023-03-01T01:16:21;102748.16;;;5.19;51.48
31044;BME280;17710;52.520;13.352;2023-03-01T01:18:50;102745.31;;;5.07;51.71
31044;BME280;17710;52.520;13.352;2023-03-01T01:21:20;102744.25;;;4.96;52.14
31044;BME280;17710;52.520;13.352;2023-03-01T01:23:48;102750.06;;;4.81;52.80
31044;BME280;17710;52.520;13.352;2023-03-01T01:26:16;102747.25;;;4.71;52.84
31044;BME280;17710;52.520;13.352;2023-03-01T01:28:43;102747.25;;;4.71;52.63
31044;BME280;17710;52.520;13.352;2023-03-01T01:31:10;102737.78;;;4.77;52.30
31044;BME280;17710;52.520;13.352;2023-03-01T01:33:36;102730.41;;;4.60;52.24
31044;BME280;17710;52.520;13.352;2023-03-01T01:36:05;102723.28;;;4.51;52.45
31044;BME280;17710;52.520;13.352;2023-03-01T01:38:32;102718.00;;;4.50;52.35
31044;BME280;17710;52.520;13.352;2023-03-01T01:40:59;102711.91;;;4.51;52.19
31044;BME280;17710;52.520;13.352;2023-03-01T01:43:27;102717.28;;;4.57;52.06
31044;BME280;17710;52.520;13.352;2023-03-01T01:45:55;102723.38;;;4.57;51.95
31044;BME280;17710;52.520;13.352;2023-03-01T01:48:28;102719.81;;;4.52;52.49
31044;BME280;17710;52.520;13.352;2023-03-01T01:51:07;102723.09;;;4.44;52.76
31044;BME280;17710;52.520;13.352;2023-03-01T01:53:37;102725.63;;;4.40;52.84
31044;BME280;17710;52.520;13.352;2023-03-01T01:56:06;102723.59;;;4.27;52.58
31044;BME280;17710;52.520;13.352;2023-03-01T01:58:35;102721.03;;;4.29;52.46
31044;BME280;17710;52.520;13.352;2023-03-01T02:01:03;102718.25;;;4.21;53.07
31044;BME280;17710;52.520;13.352;2023-03-01T02:03:31;102716.56;;;4.23;53.20
31044;BME280;17710;52.520;13.352;2023-03-01T02:06:05;102720.53;;;4.06;53.85
31044;BME280;17710;52.520;13.352;2023-03-01T02:08:37;102727.66;;;4.12;54.32
31044;BME280;17710;52.520;13.352;2023-03-01T02:11:05;102724.28;;;4.17;53.61
31044;BME280;17710;52.520;13.352;2023-03-01T02:13:32;102731.09;;;4.11;53.91
31044;BME280;17710;52.520;13.352;2023-03-01T02:16:02;102736.34;;;4.11;54.29
31044;BME280;17710;52.520;13.352;2023-03-01T02:18:31;102734.66;;;4.13;53.79
31044;BME280;17710;52.520;13.352;2023-03-01T02:21:26;102738.16;;;4.15;53.51
31044;BME280;17710;52.520;13.352;2023-03-01T02:23:58;102737.00;;;4.02;53.15
31044;BME280;17710;52.520;13.352;2023-03-01T02:26:34;102734.94;;;3.89;54.06
31044;BME280;17710;52.520;13.352;2023-03-01T02:29:04;102735.13;;;3.96;54.01
31044;BME280;17710;52.520;13.352;2023-03-01T02:31:31;102730.06;;;4.43;53.15
31044;BME280;17710;52.520;13.352;2023-03-01T02:34:11;102735.34;;;4.45;52.92
31044;BME280;17710;52.520;13.352;2023-03-01T02:36:40;102734.66;;;4.55;52.41
31044;BME280;17710;52.520;13.352;2023-03-01T02:39:12;102736.09;;;4.40;52.95
31044;BME280;17710;52.520;13.352;2023-03-01T02:41:46;102735.03;;;4.31;53.47
31044;BME280;17710;52.520;13.352;2023-03-01T02:44:14;102734.97;;;4.28;52.95
31044;BME280;17710;52.520;13.352;2023-03-01T02:46:44;102727.78;;;4.18;53.55
31044;BME280;17710;52.520;13.352;2023-03-01T02:49:21;102727.81;;;4.19;54.25
31044;BME280;17710;52.520;13.352;2023-03-01T02:51:52;102731.81;;;4.04;54.96
31044;BME280;17710;52.520;13.352;2023-03-01T02:54:25;102724.31;;;4.20;54.30
31044;BME280;17710;52.520;13.352;2023-03-01T02:56:53;102722.63;;;4.22;53.92
31044;BME280;17710;52.520;13.352;2023-03-01T02:59:22;102723.00;;;4.39;53.65
31044;BME280;17710;52.520;13.352;2023-03-01T03:01:50;102713.94;;;4.23;53.69
31044;BME280;17710;52.520;13.352;2023-03-01T03:04:19;102701.47;;;4.12;54.39
31044;BME280;17710;52.520;13.352;2023-03-01T03:06:47;102703.66;;;3.92;54.85
31044;BME280;17710;52.520;13.352;2023-03-01T03:09:14;102707.09;;;3.91;54.41
31044;BME280;17710;52.520;13.352;2023-03-01T03:11:41;102702.03;;;3.97;53.82
31044;BME280;17710;52.520;13.352;2023-03-01T03:14:09;102706.13;;;3.86;54.41
31044;BME280;17710;52.520;13.352;2023-03-01T03:16:41;102709.91;;;3.98;54.09
31044;BME280;17710;52.520;13.352;2023-03-01T03:19:07;102706.59;;;4.06;53.54
31044;BME280;17710;52.520;13.352;2023-03-01T03:21:34;102715.63;;;4.21;53.13
31044;BME280;17710;52.520;13.352;2023-03-01T03:24:01;102711.31;;;4.23;53.48
31044;BME280;17710;52.520;13.352;2023-03-01T03:26:27;102705.69;;;4.05;54.20
31044;BME280;17710;52.520;13.352;2023-03-01T03:28:54;102701.41;;;4.09;53.90
31044;BME280;17710;52.520;13.352;2023-03-01T03:31:20;102707.59;;;4.12;54.15
31044;BME280;17710;52.520;13.352;2023-03-01T03:33:48;102703.13;;;4.08;54.44
31044;BME280;17710;52.520;13.352;2023-03-01T03:36:15;102693.16;;;3.90;54.62
31044;BME280;17710;52.520;13.352;2023-03-01T03:38:43;102691.16;;;3.79;55.05
31044;BME280;17710;52.520;13.352;2023-03-01T03:41:10;102686.72;;;3.76;55.10
31044;BME280;17710;52.520;13.352;2023-03-01T03:43:38;102689.69;;;3.91;55.26
31044;BME280;17710;52.520;13.352;2023-03-01T03:46:06;102685.78;;;3.73;55.33
31044;BME280;17710;52.520;13.352;2023-03-01T03:48:33;102678.63;;;3.66;54.97
31044;BME280;17710;52.520;13.352;2023-03-01T03:51:01;102683.03;;;3.67;55.35
31044;BME280;17710;52.520;13.352;2023-03-01T03:53:30;102672.56;;;3.68;55.49
31044;BME280;17710;52.520;13.352;2023-03-01T03:55:57;102667.25;;;3.64;55.44
31044;BME280;17710;52.520;13.352;2023-03-01T03:58:24;102663.22;;;3.78;55.35
31044;BME280;17710;52.520;13.352;2023-03-01T04:00:53;102674.47;;;3.75;55.17
31044;BME280;17710;52.520;13.352;2023-03-01T04:03:21;102673.28;;;3.61;55.55
31044;BME280;17710;52.520;13.352;2023-03-01T04:05:48;102666.41;;;3.65;55.43
31044;BME280;17710;52.520;13.352;2023-03-01T04:08:17;102669.72;;;3.57;56.09
31044;BME280;17710;52.520;13.352;2023-03-01T04:10:46;102670.94;;;3.72;55.16
31044;BME280;17710;52.520;13.352;2023-03-01T04:13:15;102660.25;;;3.63;55.62
31044;BME280;17710;52.520;13.352;2023-03-01T04:15:42;102664.94;;;3.77;54.83
31044;BME280;17710;52.520;13.352;2023-03-01T04:18:11;102672.25;;;3.92;54.28
31044;BME280;17710;52.520;13.352;2023-03-01T04:20:38;102675.06;;;4.01;54.51
31044;BME280;17710;52.520;13.352;2023-03-01T04:23:07;102676.63;;;3.91;55.08
31044;BME280;17710;52.520;13.352;2023-03-01T04:25:40;102672.50;;;4.03;53.95
31044;BME280;17710;52.520;13.352;2023-03-01T04:28:08;102670.53;;;3.94;54.22
31044;BME280;17710;52.520;13.352;2023-03-01T04:30:35;102670.97;;;4.12;53.65
31044;BME280;17710;52.520;13.352;2023-03-01T04:33:03;102668.72;;;3.90;54.09
31044;BME280;17710;52.520;13.352;2023-03-01T04:35:29;102671.03;;;3.76;55.12
31044;BME280;17710;52.520;13.352;2023-03-01T04:37:56;102656.56;;;3.92;55.20
31044;BME280;17710;52.520;13.352;2023-03-01T04:40:22;102661.66;;;3.86;55.40
31044;BME280;17710;52.520;13.352;2023-03-01T04:42:50;102670.50;;;3.91;55.25
31044;BME280;17710;52.520;13.352;2023-03-01T04:45:16;102666.19;;;3.94;54.97
31044;BME280;17710;52.520;13.352;2023-03-01T04:47:44;102669.50;;;3.86;54.90
31044;BME280;17710;52.520;13.352;2023-03-01T04:50:13;102671.19;;;3.84;55.44
31044;BME280;17710;52.520;13.352;2023-03-01T04:52:40;102671.41;;;3.93;55.41
31044;BME280;17710;52.520;13.352;2023-03-01T04:55:07;102661.53;;;3.80;55.21
31044;BME280;17710;52.520;13.352;2023-03-01T04:57:34;102657.91;;;3.75;55.64
31044;BME280;17710;52.520;13.352;2023-03-01T05:00:02;102664.47;;;3.95;55.17
31044;BME280;17710;52.520;13.352;2023-03-01T05:02:45;102668.94;;;3.99;54.86
31044;BME280;17710;52.520;13.352;2023-03-01T05:05:13;102665.31;;;3.94;55.14
31044;BME280;17710;52.520;13.352;2023-03-01T05:07:40;102667.16;;;3.98;54.46
31044;BME280;17710;52.520;13.352;2023-03-01T05:10:07;102664.47;;;3.93;54.64
31044;BME280;17710;52.520;13.352;2023-03-01T05:12:33;102663.84;;;4.05;54.33
31044;BME280;17710;52.520;13.352;2023-03-01T05:15:04;102667.16;;;3.98;54.41
31044;BME280;17710;52.520;13.352;2023-03-01T05:17:32;102657.63;;;4.01;54.94
31044;BME280;17710;52.520;13.352;2023-03-01T05:19:59;102659.81;;;3.82;55.78
31044;BME280;17710;52.520;13.352;2023-03-01T05:22:26;102658.69;;;3.71;56.14
31044;BME280;17710;52.520;13.352;2023-03-01T05:24:52;102658.34;;;3.55;56.31
31044;BME280;17710;52.520;13.352;2023-03-01T05:27:20;102661.31;;;3.71;55.75
31044;BME280;17710;52.520;13.352;2023-03-01T05:29:47;102665.19;;;3.88;55.43
31044;BME280;17710;52.520;13.352;2023-03-01T05:32:15;102658.91;;;3.80;54.99
31044;BME280;17710;52.520;13.352;2023-03-01T05:34:42;102651.13;;;3.83;55.76
31044;BME280;17710;52.520;13.352;2023-03-01T05:37:09;102650.06;;;3.75;55.47
31044;BME280;17710;52.520;13.352;2023-03-01T05:39:35;102651.50;;;3.60;56.11
31044;BME280;17710;52.520;13.352;2023-03-01T05:42:02;102651.47;;;3.59;56.27
31044;BME280;17710;52.520;13.352;2023-03-01T05:44:29;102646.28;;;3.62;56.35
31044;BME280;17710;52.520;13.352;2023-03-01T05:46:56;102655.00;;;3.63;56.03
31044;BME280;17710;52.520;13.352;2023-03-01T05:49:23;102648.16;;;3.68;56.33
31044;BME280;17710;52.520;13.352;2023-03-01T05:51:52;102642.03;;;3.66;56.22
31044;BME280;17710;52.520;13.352;2023-03-01T05:54:19;102650.16;;;3.78;55.63
31044;BME280;17710;52.520;13.352;2023-03-01T05:56:46;102647.19;;;3.63;56.45
31044;BME280;17710;52.520;13.352;2023-03-01T05:59:13;102647.81;;;3.90;55.65
31044;BME280;17710;52.520;13.352;2023-03-01T06:01:41;102649.03;;;3.68;55.85
31044;BME280;17710;52.520;13.352;2023-03-01T06:04:08;102646.56;;;3.74;55.78
31044;BME280;17710;52.520;13.352;2023-03-01T06:06:36;102646.22;;;3.59;55.71
31044;BME280;17710;52.520;13.352;2023-03-01T06:09:03;102654.91;;;3.58;55.99
31044;BME280;17710;52.520;13.352;2023-03-01T06:11:30;102655.75;;;3.57;56.19
31044;BME280;17710;52.520;13.352;2023-03-01T06:13:56;102659.44;;;3.65;56.34
31044;BME280;17710;52.520;13.352;2023-03-01T06:16:22;102652.44;;;3.64;56.20
31044;BME280;17710;52.520;13.352;2023-03-01T06:18:49;102649.22;;;3.76;55.89
31044;BME280;17710;52.520;13.352;2023-03-01T06:21:16;102648.09;;;3.65;55.82
31044;BME280;17710;52.520;13.352;2023-03-01T06:23:44;102649.03;;;3.67;56.22
31044;BME280;17710;52.520;13.352;2023-03-01T06:26:10;102653.00;;;3.51;56.46
31044;BME280;17710;52.520;13.352;2023-03-01T06:28:37;102651.97;;;3.80;55.61
31044;BME280;17710;52.520;13.352;2023-03-01T06:31:04;102657.00;;;3.73;56.00
31044;BME280;17710;52.520;13.352;2023-03-01T06:33:33;102658.22;;;3.88;56.07
31044;BME280;17710;52.520;13.352;2023-03-01T06:36:01;102654.59;;;3.82;55.59
31044;BME280;17710;52.520;13.352;2023-03-01T06:38:30;102651.19;;;4.25;54.70
31044;BME280;17710;52.520;13.352;2023-03-01T06:41:01;102659.47;;;4.48;54.23
31044;BME280;17710;52.520;13.352;2023-03-01T06:43:28;102665.75;;;4.56;53.66
31044;BME280;17710;52.520;13.352;2023-03-01T06:45:55;102660.97;;;4.80;52.64
31044;BME280;17710;52.520;13.352;2023-03-01T06:48:21;102660.34;;;4.92;52.62
31044;BME280;17710;52.520;13.352;2023-03-01T06:50:48;102663.44;;;5.20;52.31
31044;BME280;17710;52.520;13.352;2023-03-01T06:53:14;102661.84;;;5.29;51.32
31044;BME280;17710;52.520;13.352;2023-03-01T06:55:41;102663.91;;;5.48;51.69
31044;BME280;17710;52.520;13.352;2023-03-01T06:58:09;102666.66;;;5.55;50.75
31044;BME280;17710;52.520;13.352;2023-03-01T07:00:36;102663.84;;;5.43;51.21
31044;BME280;17710;52.520;13.352;2023-03-01T07:03:02;102669.38;;;5.63;49.93
31044;BME280;17710;52.520;13.352;2023-03-01T07:05:29;102666.03;;;5.73;49.60
31044;BME280;17710;52.520;13.352;2023-03-01T07:07:56;102673.38;;;5.94;49.33
31044;BME280;17710;52.520;13.352;2023-03-01T07:10:23;102668.75;;;5.79;49.25
31044;BME280;17710;52.520;13.352;2023-03-01T07:12:49;102673.31;;;5.91;48.96
31044;BME280;17710;52.520;13.352;2023-03-01T07:15:17;102670.97;;;6.09;49.13
31044;BME280;17710;52.520;13.352;2023-03-01T07:17:44;102683.97;;;6.02;48.44
31044;BME280;17710;52.520;13.352;2023-03-01T07:20:12;102672.63;;;6.03;48.65
31044;BME280;17710;52.520;13.352;2023-03-01T07:22:40;102675.03;;;5.87;48.45
31044;BME280;17710;52.520;13.352;2023-03-01T07:25:07;102676.06;;;6.00;48.28
31044;BME280;17710;52.520;13.352;2023-03-01T07:27:34;102671.16;;;6.26;48.27
31044;BME280;17710;52.520;13.352;2023-03-01T07:30:00;102676.56;;;6.35;47.88
31044;BME280;17710;52.520;13.352;2023-03-01T07:32:28;102676.09;;;6.69;46.95
31044;BME280;17710;52.520;13.352;2023-03-01T07:34:54;102673.00;;;6.33;47.27
31044;BME280;17710;52.520;13.352;2023-03-01T07:37:21;102677.34;;;6.31;47.61
31044;BME280;17710;52.520;13.352;2023-03-01T07:39:47;102676.63;;;6.41;47.30
31044;BME280;17710;52.520;13.352;2023-03-01T07:42:14;102668.63;;;6.32;47.50
31044;BME280;17710;52.520;13.352;2023-03-01T07:44:40;102667.88;;;6.40;47.59
31044;BME280;17710;52.520;13.352;2023-03-01T07:47:07;102673.84;;;6.30;47.43
31044;BME280;17710;52.520;13.352;2023-03-01T07:49:35;102660.22;;;6.60;47.58
31044;BME280;17710;52.520;13.352;2023-03-01T07:52:01;102662.94;;;6.69;47.01
31044;BME280;17710;52.520;13.352;2023-03-01T07:54:28;102666.19;;;6.47;46.91
31044;BME280;17710;52.520;13.352;2023-03-01T07:56:55;102662.09;;;6.72;46.77
31044;BME280;17710;52.520;13.352;2023-03-01T07:59:22;102662.22;;;6.83;46.36
31044;BME280;17710;52.520;13.352;2023-03-01T08:01:48;102672.91;;;7.04;45.29
31044;BME280;17710;52.520;13.352;2023-03-01T08:04:15;102666.94;;;7.20;45.04
31044;BME280;17710;52.520;13.352;2023-03-01T08:06:43;102665.72;;;6.85;44.66
31044;BME280;17710;52.520;13.352;2023-03-01T08:09:09;102674.13;;;7.39;44.59
31044;BME280;17710;52.520;13.352;2023-03-01T08:11:36;102664.69;;;7.67;42.86
31044;BME280;17710;52.520;13.352;2023-03-01T08:14:02;102667.47;;;7.90;41.39
31044;BME280;17710;52.520;13.352;2023-03-01T08:16:29;102660.41;;;7.83;40.60
31044;BME280;17710;52.520;13.352;2023-03-01T08:18:55;102656.84;;;7.78;41.10
31044;BME280;17710;52.520;13.352;2023-03-01T08:21:25;102651.78;;;8.11;40.33
31044;BME280;17710;52.520;13.352;2023-03-01T08:23:53;102657.88;;;8.02;40.09
31044;BME280;17710;52.520;13.352;2023-03-01T08:26:20;102657.13;;;8.25;39.80
31044;BME280;17710;52.520;13.352;2023-03-01T08:28:48;102663.13;;;7.98;39.72
31044;BME280;17710;52.520;13.352;2023-03-01T08:31:17;102648.31;;;8.18;39.85
31044;BME280;17710;52.520;13.352;2023-03-01T08:33:45;102638.63;;;8.13;39.77
31044;BME280;17710;52.520;13.352;2023-03-01T08:36:16;102636.19;;;8.58;38.74
31044;BME280;17710;52.520;13.352;2023-03-01T08:38:42;102637.06;;;8.60;38.20
31044;BME280;17710;52.520;13.352;2023-03-01T08:41:10;102641.31;;;8.20;38.86
31044;BME280;17710;52.520;13.352;2023-03-01T08:43:37;102638.84;;;8.79;38.52
31044;BME280;17710;52.520;13.352;2023-03-01T08:46:04;102632.75;;;8.97;37.86
31044;BME280;17710;52.520;13.352;2023-03-01T08:48:30;102638.00;;;9.12;37.70
31044;BME280;17710;52.520;13.352;2023-03-01T08:50:57;102639.81;;;9.12;37.57
31044;BME280;17710;52.520;13.352;2023-03-01T08:53:32;102644.19;;;9.42;36.38
31044;BME280;17710;52.520;13.352;2023-03-01T08:55:59;102635.38;;;9.47;36.45
31044;BME280;17710;52.520;13.352;2023-03-01T08:58:27;102630.97;;;9.33;35.99
31044;BME280;17710;52.520;13.352;2023-03-01T09:00:54;102631.84;;;9.45;36.06
31044;BME280;17710;52.520;13.352;2023-03-01T09:03:21;102634.50;;;9.54;35.49
31044;BME280;17710;52.520;13.352;2023-03-01T09:05:48;102622.16;;;9.52;35.52
31044;BME280;17710;52.520;13.352;2023-03-01T09:08:15;102621.31;;;9.57;35.15
31044;BME280;17710;52.520;13.352;2023-03-01T09:10:42;102621.31;;;9.56;35.59
31044;BME280;17710;52.520;13.352;2023-03-01T09:13:08;102621.31;;;9.50;36.07
31044;BME280;17710;52.520;13.352;2023-03-01T09:15:37;102624.78;;;9.70;36.01
31044;BME280;17710;52.520;13.352;2023-03-01T09:18:04;102614.22;;;9.72;35.03
31044;BME280;17710;52.520;13.352;2023-03-01T09:20:31;102624.81;;;9.56;35.21
31044;BME280;17710;52.520;13.352;2023-03-01T09:22:58;102623.88;;;9.91;34.58
31044;BME280;17710;52.520;13.352;2023-03-01T09:25:25;102618.47;;;10.29;34.52
31044;BME280;17710;52.520;13.352;2023-03-01T09:27:51;102613.22;;;10.11;34.49
31044;BME280;17710;52.520;13.352;2023-03-01T09:30:18;102612.28;;;10.27;34.20
31044;BME280;17710;52.520;13.352;2023-03-01T09:32:46;102614.09;;;10.16;34.43
31044;BME280;17710;52.520;13.352;2023-03-01T09:35:13;102613.06;;;10.47;34.28
31044;BME280;17710;52.520;13.352;2023-03-01T09:37:39;102607.78;;;10.47;33.83
31044;BME280;17710;52.520;13.352;2023-03-01T09:40:12;102607.78;;;10.44;34.06
31044;BME280;17710;52.520;13.352;2023-03-01T09:42:47;102615.69;;;10.50;33.70
31044;BME280;17710;52.520;13.352;2023-03-01T09:45:25;102610.34;;;10.58;33.02
31044;BME280;17710;52.520;13.352;2023-03-01T09:47:54;102611.19;;;10.66;32.90
31044;BME280;17710;52.520;13.352;2023-03-01T09:50:22;102600.81;;;10.34;33.38
31044;BME280;17710;52.520;13.352;2023-03-01T09:52:54;102603.47;;;10.37;33.79
31044;BME280;17710;52.520;13.352;2023-03-01T09:55:26;102598.22;;;10.28;34.15
31044;BME280;17710;52.520;13.352;2023-03-01T09:58:00;102604.53;;;9.83;34.10
31044;BME280;17710;52.520;13.352;2023-03-01T10:00:37;102607.03;;;10.15;34.08
31044;BME280;17710;52.520;13.352;2023-03-01T10:03:16;102607.94;;;10.21;34.21
31044;BME280;17710;52.520;13.352;2023-03-01T10:05:54;102602.56;;;10.35;34.15
31044;BME280;17710;52.520;13.352;2023-03-01T10:08:29;102603.22;;;10.72;33.08
31044;BME280;17710;52.520;13.352;2023-03-01T10:11:01;102610.97;;;11.01;33.48
31044;BME280;17710;52.520;13.352;2023-03-01T10:13:33;102615.31;;;11.03;32.73
31044;BME280;17710;52.520;13.352;2023-03-01T10:16:09;102608.47;;;10.78;32.92
31044;BME280;17710;52.520;13.352;2023-03-01T10:18:39;102620.63;;;11.03;32.58
31044;BME280;17710;52.520;13.352;2023-03-01T10:21:14;102613.44;;;11.22;32.32
31044;BME280;17710;52.520;13.352;2023-03-01T10:23:41;102606.28;;;11.33;31.41
31044;BME280;17710;52.520;13.352;2023-03-01T10:26:36;102604.00;;;10.83;31.56
31044;BME280;17710;52.520;13.352;2023-03-01T10:29:07;102607.28;;;11.17;31.41
31044;BME280;17710;52.520;13.352;2023-03-01T10:31:38;102605.25;;;11.46;31.05
31044;BME280;17710;52.520;13.352;2023-03-01T10:34:10;102587.81;;;11.24;31.08
31044;BME280;17710;52.520;13.352;2023-03-01T10:36:38;102591.09;;;11.50;30.63
31044;BME280;17710;52.520;13.352;2023-03-01T10:39:11;102593.34;;;11.90;30.33
31044;BME280;17710;52.520;13.352;2023-03-01T10:41:52;102598.81;;;11.72;30.24
31044;BME280;17710;52.520;13.352;2023-03-01T10:44:36;102589.59;;;11.24;30.95
31044;BME280;17710;52.520;13.352;2023-03-01T10:47:02;102577.75;;;11.61;30.31
31044;BME280;17710;52.520;13.352;2023-03-01T10:49:31;102584.75;;;11.68;29.67
31044;BME280;17710;52.520;13.352;2023-03-01T10:52:11;102582.34;;;11.42;29.66
31044;BME280;17710;52.520;13.352;2023-03-01T10:54:51;102578.91;;;11.34;29.46
31044;BME280;17710;52.520;13.352;2023-03-01T10:57:28;102577.66;;;10.75;29.99
31044;BME280;17710;52.520;13.352;2023-03-01T11:00:10;102577.34;;;11.13;30.08
31044;BME280;17710;52.520;13.352;2023-03-01T11:02:41;102579.38;;;10.83;30.35
31044;BME280;17710;52.520;13.352;2023-03-01T11:05:18;102572.44;;;10.65;30.47
31044;BME280;17710;52.520;13.352;2023-03-01T11:07:49;102563.50;;;10.78;30.69
31044;BME280;17710;52.520;13.352;2023-03-01T11:10:18;102559.94;;;10.87;30.54
31044;BME280;17710;52.520;13.352;2023-03-01T11:12:45;102556.94;;;11.28;29.85
31044;BME280;17710;52.520;13.352;2023-03-01T11:15:24;102556.19;;;11.13;29.14
31044;BME280;17710;52.520;13.352;2023-03-01T11:17:51;102544.78;;;11.05;28.90
31044;BME280;17710;52.520;13.352;2023-03-01T11:20:25;102549.66;;;11.48;28.49
31044;BME280;17710;52.520;13.352;2023-03-01T11:22:54;102540.72;;;11.56;28.26
31044;BME280;17710;52.520;13.352;2023-03-01T11:25:25;102548.72;;;11.50;27.28
31044;BME280;17710;52.520;13.352;2023-03-01T11:27:53;102544.25;;;11.58;27.11
31044;BME280;17710;52.520;13.352;2023-03-01T11:30:22;102540.78;;;11.50;27.18
31044;BME280;17710;52.520;13.352;2023-03-01T11:32:59;102540.03;;;11.39;27.00
31044;BME280;17710;52.520;13.352;2023-03-01T11:35:32;102529.59;;;11.27;26.93
31044;BME280;17710;52.520;13.352;2023-03-01T11:38:09;102533.13;;;11.25;26.97
31044;BME280;17710;52.520;13.352;2023-03-01T11:40:44;102533.25;;;11.12;27.16
31044;BME280;17710;52.520;13.352;2023-03-01T11:43:20;102531.25;;;11.36;27.44
31044;BME280;17710;52.520;13.352;2023-03-01T11:45:58;102530.06;;;11.63;26.96
31044;BME280;17710;52.520;13.352;2023-03-01T11:48:49;102523.88;;;11.64;26.94
31044;BME280;17710;52.520;13.352;2023-03-01T11:51:23;102529.03;;;11.80;27.07
31044;BME280;17710;52.520;13.352;2023-03-01T11:53:59;102529.97;;;11.70;26.78
31044;BME280;17710;52.520;13.352;2023-03-01T11:56:31;102532.84;;;11.50;27.17
31044;BME280;17710;52.520;13.352;2023-03-01T11:59:15;102530.13;;;11.58;27.76
31044;BME280;17710;52.520;13.352;2023-03-01T12:01:57;102518.56;;;11.64;27.57
31044;BME280;17710;52.520;13.352;2023-03-01T12:04:54;102524.53;;;11.84;27.15
31044;BME280;17710;52.520;13.352;2023-03-01T12:07:36;102521.16;;;11.74;27.13
31044;BME280;17710;52.520;13.352;2023-03-01T12:10:21;102511.22;;;11.90;26.62
31044;BME280;17710;52.520;13.352;2023-03-01T12:12:58;102511.91;;;12.07;26.51
31044;BME280;17710;52.520;13.352;2023-03-01T12:15:39;102509.44;;;11.92;26.17
31044;BME280;17710;52.520;13.352;2023-03-01T12:18:34;102509.34;;;11.98;26.06
31044;BME280;17710;52.520;13.352;2023-03-01T12:21:16;102496.00;;;12.07;24.29
31044;BME280;17710;52.520;13.352;2023-03-01T12:24:16;102499.97;;;12.35;24.28
31044;BME280;17710;52.520;13.352;2023-03-01T12:27:00;102496.66;;;12.21;24.01
31044;BME280;17710;52.520;13.352;2023-03-01T12:29:34;102490.50;;;12.19;24.44
31044;BME280;17710;52.520;13.352;2023-03-01T12:32:15;102482.22;;;12.41;24.14
31044;BME280;17710;52.520;13.352;2023-03-01T12:35:01;102476.19;;;12.32;24.65
31044;BME280;17710;52.520;13.352;2023-03-01T12:37:38;102472.56;;;12.36;24.37
31044;BME280;17710;52.520;13.352;2023-03-01T12:40:23;102474.25;;;12.42;24.62
31044;BME280;17710;52.520;13.352;2023-03-01T12:43:00;102467.06;;;12.50;24.00
31044;BME280;17710;52.520;13.352;2023-03-01T12:45:44;102463.63;;;12.42;23.73
31044;BME280;17710;52.520;13.352;2023-03-01T12:48:36;102456.22;;;12.64;23.92
31044;BME280;17710;52.520;13.352;2023-03-01T12:51:09;102460.69;;;12.60;22.88
31044;BME280;17710;52.520;13.352;2023-03-01T12:53:40;102451.78;;;12.66;23.04
31044;BME280;17710;52.520;13.352;2023-03-01T12:56:11;102448.13;;;12.71;23.00
31044;BME280;17710;52.520;13.352;2023-03-01T12:58:42;102450.00;;;12.65;23.25
31044;BME280;17710;52.520;13.352;2023-03-01T13:01:25;102451.19;;;12.99;23.08
31044;BME280;17710;52.520;13.352;2023-03-01T13:04:16;102444.66;;;13.17;23.11